Time;durP1;ratioP1;P1;durP2;ratioP2;P2;SDS_P1;SDS_P2;PMS_P1;PMS_P2;Temp;Humidity;BMP_temperature;BMP_pressure;BME280_temperature;BME280_humidity;BME280_pressure;Samples;Min_cycle;Max_cycle;Signal;HPM_P1;HPM_P2
2023/09/24 00:01:13;;;;;;;0.17;0.17;;;9.90;99.90;;;;;;4959289;28;20034;-81
2023/09/24 00:03:39;;;;;;;0.10;0.10;;;9.80;99.90;;;;;;4941057;29;20031;-81
2023/09/24 00:06:08;;;;;;;0.10;0.10;;;10.00;99.90;;;;;;4948886;29;20645;-81
2023/09/24 00:08:34;;;;;;;0.10;0.10;;;9.90;99.90;;;;;;4946168;29;20151;-81
2023/09/24 00:11:00;;;;;;;0.10;0.10;;;9.80;99.90;;;;;;4959592;28;20575;-83
2023/09/24 00:13:26;;;;;;;0.10;0.10;;;9.90;99.90;;;;;;4949143;29;20039;-81
2023/09/24 00:15:52;;;;;;;0.10;0.10;;;9.90;99.90;;;;;;4952362;29;20081;-83
2023/09/24 00:18:19;;;;;;;0.10;0.10;;;9.90;99.90;;;;;;4949699;29;20035;-82
2023/09/24 00:20:45;;;;;;;0.10;0.10;;;9.90;99.90;;;;;;4958267;28;20150;-82
2023/09/24 00:23:11;;;;;;;0.10;0.10;;;9.90;99.90;;;;;;4946805;28;20042;-81
2023/09/24 00:25:37;;;;;;;0.10;0.10;;;9.90;99.90;;;;;;4943526;29;20519;-82
2023/09/24 00:28:04;;;;;;;0.10;0.10;;;9.80;99.90;;;;;;4950594;28;20035;-82
2023/09/24 00:30:33;;;;;;;0.10;0.10;;;9.80;99.90;;;;;;4945765;29;20039;-81
2023/09/24 00:32:59;;;;;;;0.10;0.10;;;9.70;99.90;;;;;;4944901;29;20034;-80
2023/09/24 00:35:25;;;;;;;0.10;0.10;;;9.80;99.90;;;;;;4943190;29;20039;-80
2023/09/24 00:37:51;;;;;;;0.10;0.10;;;9.80;99.90;;;;;;4946684;29;20430;-80
2023/09/24 00:40:18;;;;;;;0.10;0.10;;;9.80;99.90;;;;;;4941831;29;20691;-80
2023/09/24 00:42:44;;;;;;;1.17;1.10;;;9.70;99.90;;;;;;4940534;29;20589;-80
2023/09/24 00:45:11;;;;;;;0.28;0.28;;;9.70;99.90;;;;;;4941530;29;20082;-80
2023/09/24 00:47:39;;;;;;;0.10;0.10;;;9.60;99.90;;;;;;4946823;28;20766;-79
2023/09/24 00:50:10;;;;;;;0.10;0.10;;;9.70;99.90;;;;;;4937415;29;20027;-80
2023/09/24 00:52:36;;;;;;;0.10;0.10;;;9.60;99.90;;;;;;4939527;29;20935;-80
2023/09/24 00:55:10;;;;;;;0.10;0.10;;;9.60;99.90;;;;;;4937658;29;20039;-80
2023/09/24 00:57:36;;;;;;;0.10;0.10;;;9.50;99.90;;;;;;4936292;29;20024;-80
2023/09/24 01:00:12;;;;;;;0.10;0.10;;;9.50;99.90;;;;;;4939583;29;20039;-80
2023/09/24 01:02:41;;;;;;;0.10;0.10;;;9.50;99.90;;;;;;4940720;29;20028;-81
2023/09/24 01:05:10;;;;;;;0.10;0.10;;;9.50;99.90;;;;;;4947350;28;20041;-81
2023/09/24 01:07:37;;;;;;;0.10;0.10;;;9.40;99.90;;;;;;4960724;28;20865;-81
2023/09/24 01:10:04;;;;;;;;;;;9.40;99.90;;;;;;4946253;29;20567;-81
2023/09/24 01:12:30;;;;;;;0.10;0.10;;;9.40;99.90;;;;;;4946673;28;19911;-82
2023/09/24 01:14:57;;;;;;;0.10;0.10;;;9.40;99.90;;;;;;4945207;29;20031;-82
2023/09/24 01:17:25;;;;;;;0.10;0.10;;;9.40;99.90;;;;;;4949561;28;20519;-81
2023/09/24 01:19:54;;;;;;;0.10;0.10;;;9.40;99.90;;;;;;4926009;29;20411;-82
2023/09/24 01:22:20;;;;;;;2.72;0.57;;;9.40;99.90;;;;;;4940411;29;20047;-82
2023/09/24 01:24:46;;;;;;;0.10;0.10;;;9.40;99.90;;;;;;4946708;29;20031;-82
2023/09/24 01:27:12;;;;;;;0.10;0.10;;;9.30;99.90;;;;;;4950915;28;20039;-80
2023/09/24 01:29:38;;;;;;;0.10;0.10;;;9.30;99.90;;;;;;4952866;28;20571;-81
2023/09/24 01:32:08;;;;;;;0.10;0.10;;;9.20;99.90;;;;;;4957544;28;20031;-81
2023/09/24 01:34:37;;;;;;;0.10;0.10;;;9.30;99.90;;;;;;4947415;28;20035;-81
2023/09/24 01:37:09;;;;;;;0.10;0.10;;;9.30;99.90;;;;;;4951161;28;20039;-80
2023/09/24 01:39:36;;;;;;;0.10;0.10;;;9.30;99.90;;;;;;4944616;29;20039;-80
2023/09/24 01:42:02;;;;;;;0.10;0.10;;;9.30;99.90;;;;;;4950340;29;20024;-80
2023/09/24 01:44:32;;;;;;;0.10;0.10;;;9.30;99.90;;;;;;4947321;29;20114;-81
2023/09/24 01:46:58;;;;;;;0.10;0.10;;;9.30;99.90;;;;;;4959241;28;20035;-81
2023/09/24 01:49:23;;;;;;;0.10;0.10;;;9.30;99.90;;;;;;4943988;28;20030;-81
2023/09/24 01:51:49;;;;;;;0.10;0.10;;;9.30;99.90;;;;;;4950228;28;20038;-81
2023/09/24 01:54:15;;;;;;;0.10;0.10;;;9.20;99.90;;;;;;4949812;28;20443;-80
2023/09/24 01:56:41;;;;;;;0.10;0.10;;;9.20;99.90;;;;;;4950044;28;20089;-80
2023/09/24 01:59:07;;;;;;;0.10;0.10;;;9.00;99.90;;;;;;4949695;29;20046;-81
2023/09/24 02:01:33;;;;;;;0.10;0.10;;;9.00;99.90;;;;;;4949544;29;20027;-80
2023/09/24 02:04:01;;;;;;;0.10;0.10;;;9.20;99.90;;;;;;4944381;28;20032;-81
2023/09/24 02:06:27;;;;;;;0.10;0.10;;;9.10;99.90;;;;;;4947225;29;20574;-81
2023/09/24 02:08:53;;;;;;;0.10;0.10;;;9.10;99.90;;;;;;4960009;28;20027;-81
2023/09/24 02:11:22;;;;;;;0.10;0.10;;;9.00;99.90;;;;;;4946646;29;20178;-81
2023/09/24 02:13:48;;;;;;;0.10;0.10;;;9.00;99.90;;;;;;4943253;29;20126;-82
2023/09/24 02:16:14;;;;;;;0.20;0.20;;;9.00;99.90;;;;;;4947873;29;20663;-82
2023/09/24 02:18:39;;;;;;;0.20;0.20;;;8.90;99.90;;;;;;4940799;29;20059;-82
2023/09/24 02:21:15;;;;;;;0.10;0.10;;;8.80;99.90;;;;;;4961758;28;20055;-82
2023/09/24 02:23:42;;;;;;;0.10;0.10;;;8.80;99.90;;;;;;4940695;28;20775;-81
2023/09/24 02:26:08;;;;;;;0.10;0.10;;;8.80;99.90;;;;;;4943432;29;20028;-81
2023/09/24 02:28:38;;;;;;;0.10;0.10;;;8.90;99.90;;;;;;4944518;28;20027;-81
2023/09/24 02:31:06;;;;;;;0.10;0.10;;;8.80;99.90;;;;;;4943853;29;20028;-83
2023/09/24 02:33:32;;;;;;;0.10;0.10;;;8.90;99.90;;;;;;4945031;29;20658;-83
2023/09/24 02:35:57;;;;;;;0.10;0.10;;;8.90;99.90;;;;;;4941139;29;20072;-83
2023/09/24 02:38:24;;;;;;;0.10;0.10;;;8.80;99.90;;;;;;4948789;29;20039;-83
2023/09/24 02:40:50;;;;;;;;;;;8.90;99.90;;;;;;4941983;29;20616;-83
2023/09/24 02:43:16;;;;;;;0.10;0.10;;;8.90;99.90;;;;;;4945042;28;19997;-83
2023/09/24 02:45:42;;;;;;;0.10;0.10;;;8.90;99.90;;;;;;4945862;29;20123;-80
2023/09/24 02:48:08;;;;;;;0.10;0.10;;;8.80;99.90;;;;;;4947132;29;20031;-82
2023/09/24 02:50:33;;;;;;;0.10;0.10;;;8.70;99.90;;;;;;4948723;28;20031;-81
2023/09/24 02:53:02;;;;;;;0.10;0.10;;;8.60;99.90;;;;;;4944730;29;20036;-82
2023/09/24 02:55:29;;;;;;;0.10;0.10;;;8.60;99.90;;;;;;4945868;28;20113;-81
2023/09/24 02:57:56;;;;;;;0.10;0.10;;;8.60;99.90;;;;;;4947767;29;20608;-81
2023/09/24 03:00:27;;;;;;;0.10;0.10;;;8.60;99.90;;;;;;4940468;28;20539;-82
2023/09/24 03:02:55;;;;;;;0.10;0.10;;;8.70;99.90;;;;;;4960696;28;20041;-82
2023/09/24 03:05:24;;;;;;;0.30;0.30;;;8.60;99.90;;;;;;4946285;29;20027;-83
2023/09/24 03:07:53;;;;;;;0.10;0.10;;;8.60;99.90;;;;;;4942576;29;20035;-83
2023/09/24 03:10:20;;;;;;;0.10;0.10;;;8.60;99.90;;;;;;4944823;28;20081;-82
2023/09/24 03:12:48;;;;;;;0.10;0.10;;;8.60;99.90;;;;;;4946344;29;20494;-83
2023/09/24 03:15:14;;;;;;;0.10;0.10;;;8.50;99.90;;;;;;4940113;29;20043;-82
2023/09/24 03:17:41;;;;;;;0.10;0.10;;;8.50;99.90;;;;;;4947302;29;20035;-83
2023/09/24 03:20:19;;;;;;;0.10;0.10;;;8.50;99.90;;;;;;4945775;29;20554;-83
2023/09/24 03:22:48;;;;;;;0.10;0.10;;;8.50;99.90;;;;;;4939845;28;20078;-83
2023/09/24 03:25:19;;;;;;;0.10;0.10;;;8.50;99.90;;;;;;4945380;29;20023;-82
2023/09/24 03:27:45;;;;;;;0.10;0.10;;;8.50;99.90;;;;;;4947457;28;20031;-83
2023/09/24 03:30:14;;;;;;;0.10;0.10;;;8.50;99.90;;;;;;4945945;29;20059;-84
2023/09/24 03:32:41;;;;;;;0.10;0.10;;;8.50;99.90;;;;;;4959222;28;20039;-83
2023/09/24 03:35:11;;;;;;;0.10;0.10;;;8.40;99.90;;;;;;4947435;29;20575;-83
2023/09/24 03:37:43;;;;;;;0.10;0.10;;;8.40;99.90;;;;;;4946476;28;20038;-83
2023/09/24 03:40:14;;;;;;;0.10;0.10;;;8.40;99.90;;;;;;4947000;29;20042;-83
2023/09/24 03:42:40;;;;;;;0.10;0.10;;;8.30;99.90;;;;;;4937320;28;20043;-83
2023/09/24 03:45:13;;;;;;;0.10;0.10;;;8.30;99.90;;;;;;4961009;28;20538;-83
2023/09/24 03:47:39;;;;;;;0.10;0.10;;;8.30;99.90;;;;;;4944328;28;20650;-81
2023/09/24 03:50:10;;;;;;;0.10;0.10;;;8.30;99.90;;;;;;4946217;28;20033;-82
2023/09/24 03:52:37;;;;;;;0.10;0.10;;;8.30;99.90;;;;;;4947455;28;20032;-82
2023/09/24 03:55:05;;;;;;;0.10;0.10;;;8.30;99.90;;;;;;4951238;28;20086;-82
2023/09/24 03:57:30;;;;;;;0.10;0.10;;;8.40;99.90;;;;;;4946650;29;20034;-82
2023/09/24 03:59:57;;;;;;;0.20;0.20;;;8.40;99.90;;;;;;4945706;29;20024;-81
2023/09/24 04:02:24;;;;;;;0.10;0.10;;;8.40;99.90;;;;;;4943931;28;20035;-83
2023/09/24 04:04:50;;;;;;;0.10;0.10;;;8.40;99.90;;;;;;4941264;29;20035;-82
2023/09/24 04:07:20;;;;;;;0.10;0.10;;;8.30;99.90;;;;;;4948162;29;20517;-81
2023/09/24 04:09:46;;;;;;;0.10;0.10;;;8.30;99.90;;;;;;4933437;29;20032;-82
2023/09/24 04:12:13;;;;;;;0.10;0.10;;;8.20;99.90;;;;;;4955864;28;20042;-83
2023/09/24 04:14:39;;;;;;;0.10;0.10;;;8.10;99.90;;;;;;4942618;29;20286;-83
2023/09/24 04:17:05;;;;;;;0.10;0.10;;;8.20;99.90;;;;;;4941843;29;20031;-83
2023/09/24 04:19:32;;;;;;;0.15;0.15;;;8.10;99.90;;;;;;4945752;28;20042;-82
2023/09/24 04:21:58;;;;;;;0.10;0.10;;;8.10;99.90;;;;;;4962577;28;20521;-82
2023/09/24 04:24:24;;;;;;;0.10;0.10;;;8.10;99.90;;;;;;4938546;29;21077;-85
2023/09/24 04:26:54;;;;;;;0.10;0.10;;;8.10;99.90;;;;;;4939382;29;20027;-85
2023/09/24 04:29:20;;;;;;;0.10;0.10;;;8.10;99.90;;;;;;4940465;28;20553;-82
2023/09/24 04:31:46;;;;;;;0.85;0.85;;;8.10;99.90;;;;;;4962239;28;20032;-81
2023/09/24 04:34:12;;;;;;;0.10;0.10;;;8.10;99.90;;;;;;4939607;29;20042;-81
2023/09/24 04:36:42;;;;;;;0.10;0.10;;;8.00;99.90;;;;;;4945891;29;20028;-82
2023/09/24 04:39:11;;;;;;;0.10;0.10;;;8.00;99.90;;;;;;4948490;28;20062;-85
2023/09/24 04:41:42;;;;;;;0.10;0.10;;;8.00;99.90;;;;;;4944709;28;20027;-81
2023/09/24 04:44:08;;;;;;;0.10;0.10;;;7.90;99.90;;;;;;4944613;29;20062;-83
2023/09/24 04:46:35;;;;;;;0.10;0.10;;;7.90;99.90;;;;;;4942048;29;20655;-86
2023/09/24 04:49:04;;;;;;;0.10;0.10;;;7.90;99.90;;;;;;4948075;29;20038;-87
2023/09/24 04:51:32;;;;;;;0.10;0.10;;;7.90;99.90;;;;;;4962243;28;20086;-81
2023/09/24 04:53:59;;;;;;;;;;;7.80;99.90;;;;;;4946593;28;20463;-84
2023/09/24 04:56:25;;;;;;;0.10;0.10;;;7.90;99.90;;;;;;4949183;28;19921;-85
2023/09/24 04:58:50;;;;;;;0.10;0.10;;;7.80;99.90;;;;;;4966521;28;20027;-89
2023/09/24 05:01:16;;;;;;;0.10;0.10;;;7.80;99.90;;;;;;4949933;28;20039;-86
2023/09/24 05:03:42;;;;;;;0.10;0.10;;;7.90;99.90;;;;;;4951393;29;20044;-84
2023/09/24 05:06:07;;;;;;;0.10;0.10;;;8.00;99.90;;;;;;4947682;28;20118;-85
2023/09/24 05:08:34;;;;;;;0.10;0.10;;;7.90;99.90;;;;;;4946329;29;20047;-86
2023/09/24 05:11:02;;;;;;;0.10;0.10;;;8.00;99.90;;;;;;4941237;29;20071;-84
2023/09/24 05:13:28;;;;;;;0.10;0.10;;;8.00;99.90;;;;;;4964908;28;20054;-84
2023/09/24 05:15:59;;;;;;;0.10;0.10;;;8.10;99.90;;;;;;4945305;29;20498;-85
2023/09/24 05:18:29;;;;;;;0.47;0.47;;;8.20;99.90;;;;;;4963494;28;20031;-84
2023/09/24 05:20:54;;;;;;;0.10;0.10;;;8.10;99.90;;;;;;4947174;28;20070;-86
2023/09/24 05:23:21;;;;;;;0.10;0.10;;;8.00;99.90;;;;;;4950039;29;20019;-84
2023/09/24 05:25:47;;;;;;;0.10;0.10;;;8.00;99.90;;;;;;4949577;28;20038;-83
2023/09/24 05:28:14;;;;;;;0.10;0.10;;;8.00;99.90;;;;;;4950981;28;20035;-83
2023/09/24 05:30:41;;;;;;;0.10;0.10;;;7.80;99.90;;;;;;4951094;29;20038;-90
2023/09/24 05:33:07;;;;;;;0.10;0.10;;;7.80;99.90;;;;;;4951993;28;20031;-87
2023/09/24 05:35:32;;;;;;;0.10;0.10;;;7.80;99.90;;;;;;4939924;28;20043;-85
2023/09/24 05:37:58;;;;;;;0.10;0.10;;;7.80;99.90;;;;;;4968307;28;20035;-95
2023/09/24 05:40:24;;;;;;;0.10;0.10;;;7.70;99.90;;;;;;4963541;28;20142;-86
2023/09/24 05:42:50;;;;;;;0.20;0.20;;;7.70;99.90;;;;;;4967638;28;20693;-86
2023/09/24 05:45:15;;;;;;;0.10;0.10;;;7.70;99.90;;;;;;4940030;29;20471;-86
2023/09/24 05:47:41;;;;;;;0.85;0.85;;;7.70;99.90;;;;;;4949644;29;20039;-93
2023/09/24 05:50:08;;;;;;;0.10;0.10;;;7.70;99.90;;;;;;4948395;29;20035;-93
2023/09/24 05:52:33;;;;;;;0.08;0.08;;;7.70;99.90;;;;;;4964998;28;20039;-93
2023/09/24 05:54:59;;;;;;;0.30;0.30;;;7.70;99.90;;;;;;4958673;28;20031;-89
2023/09/24 05:57:28;;;;;;;0.10;0.10;;;8.00;99.90;;;;;;4971730;28;20027;-91
2023/09/24 05:59:56;;;;;;;0.10;0.10;;;8.30;99.90;;;;;;4967567;28;20050;-94
2023/09/24 06:02:25;;;;;;;0.10;0.10;;;8.60;99.90;;;;;;4958780;28;20038;-94
2023/09/24 06:04:53;;;;;;;0.10;0.10;;;8.70;99.90;;;;;;4956149;28;20035;-92
2023/09/24 06:07:18;;;;;;;0.10;0.10;;;8.90;99.90;;;;;;4966909;28;20054;-87
2023/09/24 06:09:44;;;;;;;0.10;0.10;;;9.20;99.90;;;;;;4948523;28;20424;-92
2023/09/24 06:12:10;;;;;;;0.10;0.10;;;9.40;99.90;;;;;;4949503;28;20036;-90
2023/09/24 06:14:36;;;;;;;0.10;0.10;;;9.70;99.90;;;;;;4953530;28;20036;-89
2023/09/24 06:17:03;;;;;;;0.10;0.10;;;9.90;99.90;;;;;;4970611;28;20134;-90
2023/09/24 06:19:30;;;;;;;0.10;0.10;;;10.10;99.90;;;;;;4950922;29;20027;-92
2023/09/24 06:21:55;;;;;;;0.10;0.10;;;10.10;99.90;;;;;;4948810;29;20522;-89
2023/09/24 06:24:22;;;;;;;0.00;0.00;;;10.20;99.90;;;;;;4941863;28;20062;-82
2023/09/24 06:26:48;;;;;;;0.00;0.00;;;10.30;99.90;;;;;;4946451;28;20073;-80
2023/09/24 06:29:14;;;;;;;0.10;0.10;;;10.50;99.90;;;;;;4953981;28;20031;-84
2023/09/24 06:31:40;;;;;;;0.00;0.00;;;10.60;99.90;;;;;;4941728;29;20376;-83
2023/09/24 06:34:06;;;;;;;0.10;0.10;;;10.90;99.90;;;;;;4948188;29;20286;-83
2023/09/24 06:36:31;;;;;;;0.10;0.10;;;11.10;99.90;;;;;;4944774;29;20022;-84
2023/09/24 06:38:59;;;;;;;0.00;0.00;;;11.60;99.90;;;;;;4947545;29;20063;-84
2023/09/24 06:41:25;;;;;;;0.10;0.10;;;12.00;99.90;;;;;;4944013;29;20707;-83
2023/09/24 06:43:51;;;;;;;0.00;0.00;;;12.00;98.70;;;;;;4940603;29;20065;-84
2023/09/24 06:46:17;;;;;;;0.10;0.10;;;12.30;97.90;;;;;;4946726;29;20034;-83
2023/09/24 06:48:43;;;;;;;0.05;0.05;;;12.30;97.70;;;;;;4941816;29;20039;-85
2023/09/24 06:51:09;;;;;;;0.03;0.03;;;12.10;97.20;;;;;;4963144;28;20039;-83
2023/09/24 06:53:38;;;;;;;;;;;12.20;97.90;;;;;;4949216;28;20035;-84
2023/09/24 06:56:07;;;;;;;0.00;0.00;;;12.40;97.00;;;;;;4947420;28;19945;-85
2023/09/24 06:58:34;;;;;;;0.10;0.10;;;12.70;96.10;;;;;;4965055;28;20042;-84
2023/09/24 07:01:01;;;;;;;0.00;0.00;;;12.90;95.40;;;;;;4946870;29;20092;-84
2023/09/24 07:03:27;;;;;;;;;;;13.40;94.70;;;;;;4944361;29;20038;-81
2023/09/24 07:05:53;;;;;;;;;;;13.90;92.70;;;;;;4958587;28;20449;-81
2023/09/24 07:08:19;;;;;;;0.00;0.00;;;13.80;92.40;;;;;;4944637;28;19910;-80
2023/09/24 07:10:45;;;;;;;0.20;0.20;;;13.90;92.40;;;;;;4941656;29;20044;-81
2023/09/24 07:13:11;;;;;;;0.20;0.20;;;14.40;91.90;;;;;;4943303;29;20110;-82
2023/09/24 07:15:37;;;;;;;0.00;0.00;;;14.30;91.20;;;;;;4948944;29;20058;-81
2023/09/24 07:18:03;;;;;;;0.00;0.00;;;14.40;91.60;;;;;;4935332;29;20044;-83
2023/09/24 07:20:29;;;;;;;0.00;0.00;;;15.10;90.50;;;;;;4963442;28;20896;-83
2023/09/24 07:22:55;;;;;;;0.00;0.00;;;15.00;90.30;;;;;;4945393;29;20028;-88
2023/09/24 07:25:20;;;;;;;0.00;0.00;;;14.80;90.50;;;;;;4954387;28;20030;-85
2023/09/24 07:27:47;;;;;;;0.00;0.00;;;15.10;89.70;;;;;;4949036;28;20549;-88
2023/09/24 07:30:14;;;;;;;0.00;0.00;;;14.90;87.20;;;;;;4951028;28;20031;-86
2023/09/24 07:32:40;;;;;;;0.00;0.00;;;15.30;86.80;;;;;;4947127;29;20062;-86
2023/09/24 07:35:08;;;;;;;0.00;0.00;;;15.60;86.10;;;;;;4963710;28;20090;-87
2023/09/24 07:37:33;;;;;;;0.00;0.00;;;15.70;85.70;;;;;;4963837;28;20035;-85
2023/09/24 07:40:00;;;;;;;0.00;0.00;;;15.70;85.30;;;;;;4949662;29;20158;-86
2023/09/24 07:42:26;;;;;;;0.00;0.00;;;16.20;81.70;;;;;;4940699;29;20078;-85
2023/09/24 07:44:51;;;;;;;0.00;0.00;;;15.90;83.30;;;;;;4964645;28;20222;-87
2023/09/24 07:47:17;;;;;;;0.00;0.00;;;16.00;82.10;;;;;;4959391;28;20059;-87
2023/09/24 07:49:43;;;;;;;0.00;0.00;;;16.40;79.50;;;;;;4957807;28;20027;-87
2023/09/24 07:52:09;;;;;;;0.00;0.00;;;16.20;80.40;;;;;;4945520;29;20027;-87
2023/09/24 07:54:35;;;;;;;0.00;0.00;;;16.00;80.00;;;;;;4943862;28;20050;-86
2023/09/24 07:57:00;;;;;;;0.00;0.00;;;16.20;79.40;;;;;;4944292;29;20032;-87
2023/09/24 07:59:26;;;;;;;0.00;0.00;;;16.60;78.20;;;;;;4948110;29;20067;-86
2023/09/24 08:01:52;;;;;;;0.40;0.40;;;17.50;76.90;;;;;;4944585;28;20051;-87
2023/09/24 08:04:17;;;;;;;0.10;0.10;;;17.70;74.30;;;;;;4946841;29;20027;-87
2023/09/24 08:06:43;;;;;;;0.00;0.00;;;17.70;73.80;;;;;;4946097;28;20035;-88
2023/09/24 08:09:09;;;;;;;0.00;0.00;;;17.90;72.10;;;;;;4948662;28;20027;-86
2023/09/24 08:11:34;;;;;;;0.00;0.00;;;17.90;71.90;;;;;;4947341;29;20050;-86
2023/09/24 08:14:00;;;;;;;0.00;0.00;;;18.30;71.20;;;;;;4948965;29;20038;-86
2023/09/24 08:16:26;;;;;;;0.00;0.00;;;18.70;71.80;;;;;;4949845;28;20477;-85
2023/09/24 08:18:52;;;;;;;0.00;0.00;;;18.50;71.00;;;;;;4945580;29;20049;-85
2023/09/24 08:21:18;;;;;;;0.00;0.00;;;18.90;69.30;;;;;;4940898;29;20043;-85
2023/09/24 08:23:44;;;;;;;0.00;0.00;;;18.60;70.90;;;;;;4942521;29;20023;-84
2023/09/24 08:26:10;;;;;;;0.00;0.00;;;18.70;69.10;;;;;;4949652;29;20032;-84
2023/09/24 08:28:36;;;;;;;0.00;0.00;;;18.70;70.30;;;;;;4956553;28;20070;-85
2023/09/24 08:31:08;;;;;;;0.10;0.10;;;19.40;69.20;;;;;;4944061;28;20031;-85
2023/09/24 08:33:34;;;;;;;0.00;0.00;;;19.70;66.70;;;;;;4943455;29;20034;-84
2023/09/24 08:36:00;;;;;;;0.00;0.00;;;19.90;65.00;;;;;;4945494;29;20122;-84
2023/09/24 08:38:25;;;;;;;0.00;0.00;;;20.30;65.70;;;;;;4943495;29;20086;-84
2023/09/24 08:40:53;;;;;;;0.00;0.00;;;20.10;65.90;;;;;;4942520;29;20070;-85
2023/09/24 08:43:21;;;;;;;0.00;0.00;;;20.10;64.30;;;;;;4940359;29;20844;-86
2023/09/24 08:45:48;;;;;;;0.00;0.00;;;20.20;63.90;;;;;;4941071;29;20492;-84
2023/09/24 08:48:14;;;;;;;;;;;20.20;63.30;;;;;;4942772;29;20038;-86
2023/09/24 08:50:41;;;;;;;0.00;0.00;;;21.50;62.20;;;;;;4948304;28;20001;-85
2023/09/24 08:53:12;;;;;;;0.00;0.00;;;21.50;61.70;;;;;;4951444;29;20035;-85
2023/09/24 08:55:43;;;;;;;0.00;0.00;;;21.30;61.90;;;;;;4960885;28;20031;-85
2023/09/24 08:58:09;;;;;;;0.00;0.00;;;20.50;61.70;;;;;;4951710;29;20486;-85
2023/09/24 09:00:36;;;;;;;0.00;0.00;;;21.00;62.20;;;;;;4948904;28;20066;-84
2023/09/24 09:03:04;;;;;;;;;;;21.90;62.30;;;;;;4941983;28;20043;-85
2023/09/24 09:05:34;;;;;;;0.00;0.00;;;21.00;61.50;;;;;;4948617;29;19914;-85
2023/09/24 09:08:02;;;;;;;0.00;0.00;;;21.40;63.10;;;;;;4948314;28;20028;-85
2023/09/24 09:10:30;;;;;;;0.00;0.00;;;21.30;61.70;;;;;;4948928;29;20774;-84
2023/09/24 09:13:20;;;;;;;0.00;0.00;;;21.30;61.30;;;;;;4947569;28;21006;-85
2023/09/24 09:15:47;;;;;;;0.00;0.00;;;21.70;60.10;;;;;;4941495;28;20037;-84
2023/09/24 09:18:24;;;;;;;0.00;0.00;;;22.10;59.00;;;;;;4945682;28;20062;-85
2023/09/24 09:20:52;;;;;;;0.00;0.00;;;21.80;60.70;;;;;;4938439;28;20051;-85
2023/09/24 09:23:36;;;;;;;0.00;0.00;;;22.20;59.40;;;;;;4939768;28;20028;-85
2023/09/24 09:26:01;;;;;;;0.00;0.00;;;22.60;59.80;;;;;;4939834;29;20504;-85
2023/09/24 09:28:32;;;;;;;0.00;0.00;;;22.40;58.50;;;;;;4949072;28;20081;-84
2023/09/24 09:31:07;;;;;;;0.00;0.00;;;22.30;57.30;;;;;;4947306;29;20051;-85
2023/09/24 09:33:41;;;;;;;0.00;0.00;;;22.10;59.10;;;;;;4939685;29;20063;-85
2023/09/24 09:36:24;;;;;;;0.00;0.00;;;22.20;59.40;;;;;;4941893;28;20033;-85
2023/09/24 09:38:51;;;;;;;0.00;0.00;;;22.40;58.20;;;;;;4943186;29;20045;-85
2023/09/24 09:41:19;;;;;;;0.00;0.00;;;23.10;56.30;;;;;;4943232;29;20023;-85
2023/09/24 09:43:49;;;;;;;0.00;0.00;;;23.10;57.10;;;;;;4942057;28;20035;-85
2023/09/24 09:46:23;;;;;;;0.00;0.00;;;22.50;57.90;;;;;;4938444;28;20027;-84
2023/09/24 09:49:09;;;;;;;0.00;0.00;;;21.90;57.00;;;;;;4947488;28;20035;-84
2023/09/24 09:51:47;;;;;;;0.00;0.00;;;21.80;58.80;;;;;;4934254;29;20043;-86
2023/09/24 09:54:13;;;;;;;0.00;0.00;;;21.30;60.70;;;;;;4946318;28;20524;-86
2023/09/24 09:56:40;;;;;;;;;;;20.30;63.10;;;;;;4943765;29;20118;-84
2023/09/24 09:59:06;;;;;;;;;;;20.00;64.70;;;;;;4950575;29;19910;-85
2023/09/24 10:01:32;;;;;;;0.00;0.00;;;20.20;64.50;;;;;;4941815;28;19915;-85
2023/09/24 10:03:59;;;;;;;0.00;0.00;;;20.30;64.90;;;;;;4947105;28;20043;-85
2023/09/24 10:06:26;;;;;;;0.85;0.85;;;20.00;66.20;;;;;;4948660;29;20031;-85
2023/09/24 10:08:52;;;;;;;0.00;0.00;;;19.30;65.40;;;;;;4945171;29;20118;-84
2023/09/24 10:11:32;;;;;;;0.00;0.00;;;19.50;67.90;;;;;;4946260;28;20042;-84
2023/09/24 10:14:05;;;;;;;0.00;0.00;;;18.80;66.80;;;;;;4945271;29;20193;-85
2023/09/24 10:16:35;;;;;;;0.15;0.15;;;18.80;67.70;;;;;;4948453;28;20439;-84
2023/09/24 10:19:12;;;;;;;0.00;0.00;;;19.00;68.40;;;;;;4965103;28;20098;-85
2023/09/24 10:21:44;;;;;;;0.00;0.00;;;19.50;67.40;;;;;;4938503;28;20099;-85
2023/09/24 10:24:12;;;;;;;0.00;0.00;;;19.10;67.10;;;;;;4935234;28;20039;-84
2023/09/24 10:26:54;;;;;;;0.00;0.00;;;19.20;68.80;;;;;;4937057;29;20103;-85
2023/09/24 10:29:40;;;;;;;0.00;0.00;;;19.70;67.20;;;;;;4968233;28;20110;-85
2023/09/24 10:32:12;;;;;;;0.00;0.00;;;19.20;68.60;;;;;;4937553;29;20129;-85
2023/09/24 10:34:55;;;;;;;0.00;0.00;;;19.00;67.80;;;;;;4935092;29;20108;-85
2023/09/24 10:37:26;;;;;;;0.00;0.00;;;19.50;68.20;;;;;;4947651;29;20031;-84
2023/09/24 10:40:12;;;;;;;0.00;0.00;;;19.50;67.40;;;;;;4942207;29;20095;-84
2023/09/24 10:42:45;;;;;;;;;;;19.30;66.40;;;;;;4942466;29;20094;-85
2023/09/24 10:45:12;;;;;;;0.22;0.22;;;19.50;70.30;;;;;;4934051;28;20005;-84
2023/09/24 10:47:42;;;;;;;0.08;0.08;;;19.50;70.90;;;;;;4943108;29;20027;-85
2023/09/24 10:50:10;;;;;;;0.00;0.00;;;18.80;66.50;;;;;;4937451;29;20041;-85
2023/09/24 10:52:55;;;;;;;0.00;0.00;;;19.10;69.60;;;;;;4964641;28;20024;-85
2023/09/24 10:55:27;;;;;;;0.00;0.00;;;19.10;67.10;;;;;;4938101;28;20054;-85
2023/09/24 10:57:53;;;;;;;0.00;0.00;;;19.20;67.80;;;;;;4964281;28;20043;-85
2023/09/24 11:00:21;;;;;;;0.00;0.00;;;19.10;68.00;;;;;;4947318;29;20028;-85
2023/09/24 11:03:00;;;;;;;0.00;0.00;;;19.30;68.60;;;;;;4943769;29;20034;-85
2023/09/24 11:05:27;;;;;;;0.00;0.00;;;19.70;63.70;;;;;;4943624;29;20031;-85
2023/09/24 11:07:53;;;;;;;0.00;0.00;;;19.40;65.80;;;;;;4946528;28;20031;-85
2023/09/24 11:10:22;;;;;;;0.00;0.00;;;19.70;63.60;;;;;;4947035;29;20038;-85
2023/09/24 11:12:49;;;;;;;0.00;0.00;;;19.80;66.00;;;;;;4945234;28;20609;-85
2023/09/24 11:15:16;;;;;;;;;;;19.10;64.10;;;;;;4942257;29;20027;-86
2023/09/24 11:17:44;;;;;;;0.00;0.00;;;19.40;66.60;;;;;;4946206;28;19918;-85
2023/09/24 11:20:10;;;;;;;0.00;0.00;;;19.50;68.80;;;;;;4938119;29;20039;-85
2023/09/24 11:22:36;;;;;;;0.00;0.00;;;19.60;66.30;;;;;;4942459;28;20027;-88
2023/09/24 11:25:06;;;;;;;0.00;0.00;;;19.20;64.50;;;;;;4943342;29;20032;-85
2023/09/24 11:27:36;;;;;;;0.00;0.00;;;19.30;69.30;;;;;;4948442;28;20471;-85
2023/09/24 11:30:03;;;;;;;0.00;0.00;;;19.40;69.40;;;;;;4950702;28;20042;-84
2023/09/24 11:32:29;;;;;;;0.00;0.00;;;19.30;67.00;;;;;;4939654;28;20474;-84
2023/09/24 11:35:11;;;;;;;0.00;0.00;;;19.10;68.40;;;;;;4936212;29;20039;-85
2023/09/24 11:38:01;;;;;;;0.00;0.00;;;19.30;68.30;;;;;;4941288;29;20051;-85
2023/09/24 11:40:35;;;;;;;0.00;0.00;;;19.10;68.60;;;;;;4937426;28;20031;-84
2023/09/24 11:43:03;;;;;;;0.00;0.00;;;19.30;69.90;;;;;;4944998;29;20087;-85
2023/09/24 11:45:36;;;;;;;0.00;0.00;;;19.00;69.70;;;;;;4946935;29;20031;-86
2023/09/24 11:48:02;;;;;;;0.00;0.00;;;19.00;70.40;;;;;;4951328;28;20031;-85
2023/09/24 11:50:29;;;;;;;0.00;0.00;;;19.20;74.40;;;;;;4949910;29;20070;-85
2023/09/24 11:52:54;;;;;;;0.00;0.00;;;19.20;73.00;;;;;;4950940;29;20828;-86
2023/09/24 11:55:20;;;;;;;0.00;0.00;;;19.20;70.20;;;;;;4952531;28;20196;-85
2023/09/24 11:57:46;;;;;;;0.00;0.00;;;19.20;67.60;;;;;;4952309;29;20039;-86
2023/09/24 12:00:12;;;;;;;0.00;0.00;;;18.90;66.90;;;;;;4948697;28;20039;-84
2023/09/24 12:02:39;;;;;;;;;;;19.10;66.50;;;;;;4943728;28;20063;-83
2023/09/24 12:05:04;;;;;;;;;;;19.10;69.40;;;;;;4948144;28;20049;-83
2023/09/24 12:07:33;;;;;;;0.00;0.00;;;19.10;69.80;;;;;;4952036;28;20001;-84
2023/09/24 12:10:01;;;;;;;0.00;0.00;;;19.20;69.60;;;;;;4951897;29;20034;-84
2023/09/24 12:12:27;;;;;;;0.00;0.00;;;19.20;69.30;;;;;;4949151;29;20518;-83
2023/09/24 12:14:52;;;;;;;0.00;0.00;;;19.30;70.60;;;;;;4950613;29;20039;-84
2023/09/24 12:17:19;;;;;;;0.00;0.00;;;19.20;68.90;;;;;;4948224;29;20039;-84
2023/09/24 12:19:45;;;;;;;;;;;19.10;66.70;;;;;;4963886;28;20047;-84
2023/09/24 12:22:11;;;;;;;0.08;0.08;;;19.10;64.50;;;;;;4942550;28;19919;-85
2023/09/24 12:24:37;;;;;;;0.00;0.00;;;19.00;62.40;;;;;;4950355;28;20605;-84
2023/09/24 12:27:03;;;;;;;0.00;0.00;;;19.10;68.20;;;;;;4950616;29;20031;-84
2023/09/24 12:29:30;;;;;;;0.00;0.00;;;19.20;66.00;;;;;;4952255;28;20031;-84
2023/09/24 12:31:56;;;;;;;0.00;0.00;;;19.20;65.10;;;;;;4950161;28;20046;-85
2023/09/24 12:34:22;;;;;;;0.00;0.00;;;19.00;65.00;;;;;;4949480;29;20027;-83
2023/09/24 12:36:48;;;;;;;0.00;0.00;;;19.10;66.40;;;;;;4960995;28;20062;-84
2023/09/24 12:39:17;;;;;;;0.00;0.00;;;19.10;65.10;;;;;;4949518;29;20491;-86
2023/09/24 12:41:42;;;;;;;0.00;0.00;;;19.10;64.30;;;;;;4941493;28;20554;-85
2023/09/24 12:44:08;;;;;;;0.20;0.20;;;19.00;63.30;;;;;;4944893;29;20425;-83
2023/09/24 12:46:34;;;;;;;0.00;0.00;;;19.20;67.40;;;;;;4950568;29;20101;-82
2023/09/24 12:49:02;;;;;;;0.00;0.00;;;19.20;63.50;;;;;;4950024;28;20286;-82
2023/09/24 12:51:29;;;;;;;0.00;0.00;;;19.20;65.50;;;;;;4949031;28;20043;-87
2023/09/24 12:53:54;;;;;;;;;;;19.20;65.20;;;;;;4963578;28;20041;-85
2023/09/24 12:56:21;;;;;;;0.00;0.00;;;19.10;65.70;;;;;;4965535;28;20389;-85
2023/09/24 12:58:49;;;;;;;0.00;0.00;;;19.00;67.20;;;;;;4949229;28;20315;-87